sensor_id;sensor_type;location;lat;lon;timestamp;P1;durP1;ratioP1;P2;durP2;ratioP2
20344;SDS011;10330;48.816;9.278;2023-11-19T00:01:32;1.67;;;1.58;;
20344;SDS011;10330;48.816;9.278;2023-11-19T00:03:58;2.17;;;2.00;;
20344;SDS011;10330;48.816;9.278;2023-11-19T00:06:24;1.75;;;1.65;;
20344;SDS011;10330;48.816;9.278;2023-11-19T00:08:51;2.97;;;1.83;;
20344;SDS011;10330;48.816;9.278;2023-11-19T00:11:17;2.33;;;2.17;;
20344;SDS011;10330;48.816;9.278;2023-11-19T00:13:44;2.47;;;1.77;;
20344;SDS011;10330;48.816;9.278;2023-11-19T00:16:10;1.52;;;1.50;;
20344;SDS011;10330;48.816;9.278;2023-11-19T00:18:37;4.20;;;2.05;;
20344;SDS011;10330;48.816;9.278;2023-11-19T00:21:04;1.63;;;1.52;;
20344;SDS011;10330;48.816;9.278;2023-11-19T00:23:30;4.97;;;2.10;;
20344;SDS011;10330;48.816;9.278;2023-11-19T00:25:59;3.63;;;1.80;;
20344;SDS011;10330;48.816;9.278;2023-11-19T00:28:29;2.08;;;1.90;;
20344;SDS011;10330;48.816;9.278;2023-11-19T00:30:55;2.28;;;1.95;;
20344;SDS011;10330;48.816;9.278;2023-11-19T00:33:21;3.42;;;1.60;;
20344;SDS011;10330;48.816;9.278;2023-11-19T00:35:48;1.70;;;1.60;;
20344;SDS011;10330;48.816;9.278;2023-11-19T00:38:14;2.00;;;1.90;;
20344;SDS011;10330;48.816;9.278;2023-11-19T00:40:40;1.95;;;1.83;;
20344;SDS011;10330;48.816;9.278;2023-11-19T00:43:06;1.85;;;1.75;;
20344;SDS011;10330;48.816;9.278;2023-11-19T00:45:33;2.17;;;1.48;;
20344;SDS011;10330;48.816;9.278;2023-11-19T00:47:59;3.08;;;1.63;;
20344;SDS011;10330;48.816;9.278;2023-11-19T00:50:25;2.63;;;1.60;;
20344;SDS011;10330;48.816;9.278;2023-11-19T00:52:55;3.80;;;1.52;;
20344;SDS011;10330;48.816;9.278;2023-11-19T00:55:21;1.63;;;1.52;;
20344;SDS011;10330;48.816;9.278;2023-11-19T00:57:47;2.47;;;1.80;;
20344;SDS011;10330;48.816;9.278;2023-11-19T01:00:13;1.63;;;1.50;;
20344;SDS011;10330;48.816;9.278;2023-11-19T01:02:49;6.00;;;1.75;;
20344;SDS011;10330;48.816;9.278;2023-11-19T01:05:16;4.93;;;1.65;;
20344;SDS011;10330;48.816;9.278;2023-11-19T01:07:43;1.73;;;1.63;;
20344;SDS011;10330;48.816;9.278;2023-11-19T01:10:09;1.75;;;1.42;;
20344;SDS011;10330;48.816;9.278;2023-11-19T01:12:37;1.80;;;1.70;;
20344;SDS011;10330;48.816;9.278;2023-11-19T01:15:05;2.63;;;1.48;;
20344;SDS011;10330;48.816;9.278;2023-11-19T01:17:32;1.58;;;1.48;;
20344;SDS011;10330;48.816;9.278;2023-11-19T01:19:58;1.50;;;1.40;;
20344;SDS011;10330;48.816;9.278;2023-11-19T01:22:25;1.45;;;1.35;;
20344;SDS011;10330;48.816;9.278;2023-11-19T01:24:52;1.20;;;1.20;;
20344;SDS011;10330;48.816;9.278;2023-11-19T01:27:20;1.40;;;1.40;;
20344;SDS011;10330;48.816;9.278;2023-11-19T01:29:46;1.48;;;1.48;;
20344;SDS011;10330;48.816;9.278;2023-11-19T01:32:12;2.45;;;1.92;;
20344;SDS011;10330;48.816;9.278;2023-11-19T01:34:41;1.35;;;1.30;;
20344;SDS011;10330;48.816;9.278;2023-11-19T01:37:07;1.63;;;1.52;;
20344;SDS011;10330;48.816;9.278;2023-11-19T01:39:38;3.35;;;1.48;;
20344;SDS011;10330;48.816;9.278;2023-11-19T01:42:04;2.85;;;1.45;;
20344;SDS011;10330;48.816;9.278;2023-11-19T01:44:31;1.90;;;1.70;;
20344;SDS011;10330;48.816;9.278;2023-11-19T01:46:57;1.52;;;1.45;;
20344;SDS011;10330;48.816;9.278;2023-11-19T01:49:24;1.55;;;1.45;;
20344;SDS011;10330;48.816;9.278;2023-11-19T01:52:03;1.85;;;1.73;;
20344;SDS011;10330;48.816;9.278;2023-11-19T01:54:33;1.25;;;1.20;;
20344;SDS011;10330;48.816;9.278;2023-11-19T03:34:51;0.93;;;0.93;;
20344;SDS011;10330;48.816;9.278;2023-11-19T03:50:49;2.35;;;2.15;;
20344;SDS011;10330;48.816;9.278;2023-11-19T04:31:45;0.40;;;0.40;;
20344;SDS011;10330;48.816;9.278;2023-11-19T06:11:33;2.65;;;0.50;;
20344;SDS011;10330;48.816;9.278;2023-11-19T07:12:53;0.47;;;0.47;;
20344;SDS011;10330;48.816;9.278;2023-11-19T07:16:22;0.50;;;0.50;;
20344;SDS011;10330;48.816;9.278;2023-11-19T07:18:48;0.70;;;0.70;;
20344;SDS011;10330;48.816;9.278;2023-11-19T10:35:33;1.08;;;0.50;;
20344;SDS011;10330;48.816;9.278;2023-11-19T10:38:15;0.70;;;0.70;;
20344;SDS011;10330;48.816;9.278;2023-11-19T10:41:46;4.78;;;0.90;;
20344;SDS011;10330;48.816;9.278;2023-11-19T10:57:49;1.40;;;1.00;;
20344;SDS011;10330;48.816;9.278;2023-11-19T11:01:10;0.95;;;0.93;;
20344;SDS011;10330;48.816;9.278;2023-11-19T11:04:14;3.17;;;1.65;;
20344;SDS011;10330;48.816;9.278;2023-11-19T11:07:09;3.42;;;0.80;;
20344;SDS011;10330;48.816;9.278;2023-11-19T11:09:48;1.85;;;0.80;;
20344;SDS011;10330;48.816;9.278;2023-11-19T11:13:04;2.58;;;0.90;;
20344;SDS011;10330;48.816;9.278;2023-11-19T11:28:38;5.82;;;3.38;;
20344;SDS011;10330;48.816;9.278;2023-11-19T11:41:55;2.58;;;0.70;;
20344;SDS011;10330;48.816;9.278;2023-11-19T11:45:03;1.27;;;0.80;;
20344;SDS011;10330;48.816;9.278;2023-11-19T11:48:28;3.35;;;0.80;;
20344;SDS011;10330;48.816;9.278;2023-11-19T12:11:01;2.22;;;0.80;;
20344;SDS011;10330;48.816;9.278;2023-11-19T12:13:42;3.60;;;1.15;;
20344;SDS011;10330;48.816;9.278;2023-11-19T12:16:21;1.80;;;0.80;;
20344;SDS011;10330;48.816;9.278;2023-11-19T12:18:50;3.88;;;0.85;;
20344;SDS011;10330;48.816;9.278;2023-11-19T12:21:40;0.85;;;0.85;;
20344;SDS011;10330;48.816;9.278;2023-11-19T12:24:10;1.70;;;0.70;;
20344;SDS011;10330;48.816;9.278;2023-11-19T12:26:43;1.58;;;0.52;;
20344;SDS011;10330;48.816;9.278;2023-11-19T12:29:48;3.22;;;0.70;;
20344;SDS011;10330;48.816;9.278;2023-11-19T12:32:15;3.05;;;1.17;;
20344;SDS011;10330;48.816;9.278;2023-11-19T12:34:45;1.13;;;0.57;;
20344;SDS011;10330;48.816;9.278;2023-11-19T12:42:45;2.00;;;0.65;;
20344;SDS011;10330;48.816;9.278;2023-11-19T12:45:12;1.55;;;1.02;;
20344;SDS011;10330;48.816;9.278;2023-11-19T12:47:39;0.60;;;0.60;;
20344;SDS011;10330;48.816;9.278;2023-11-19T12:50:21;4.00;;;0.98;;
20344;SDS011;10330;48.816;9.278;2023-11-19T12:53:23;2.70;;;0.80;;
20344;SDS011;10330;48.816;9.278;2023-11-19T12:59:09;1.45;;;0.70;;
20344;SDS011;10330;48.816;9.278;2023-11-19T13:01:59;5.53;;;0.80;;
20344;SDS011;10330;48.816;9.278;2023-11-19T13:12:12;2.17;;;0.63;;
20344;SDS011;10330;48.816;9.278;2023-11-19T13:14:41;0.95;;;0.40;;
20344;SDS011;10330;48.816;9.278;2023-11-19T13:17:13;0.73;;;0.73;;
20344;SDS011;10330;48.816;9.278;2023-11-19T13:19:43;4.53;;;0.90;;
20344;SDS011;10330;48.816;9.278;2023-11-19T13:22:23;1.27;;;0.63;;
20344;SDS011;10330;48.816;9.278;2023-11-19T13:24:58;1.83;;;0.65;;
20344;SDS011;10330;48.816;9.278;2023-11-19T13:27:32;0.85;;;0.52;;
20344;SDS011;10330;48.816;9.278;2023-11-19T13:29:59;2.15;;;0.70;;
20344;SDS011;10330;48.816;9.278;2023-11-19T13:32:25;1.10;;;0.68;;
20344;SDS011;10330;48.816;9.278;2023-11-19T13:34:52;2.60;;;1.27;;
20344;SDS011;10330;48.816;9.278;2023-11-19T13:37:21;0.52;;;0.52;;
20344;SDS011;10330;48.816;9.278;2023-11-19T13:39:48;4.10;;;1.25;;
20344;SDS011;10330;48.816;9.278;2023-11-19T13:42:15;1.95;;;0.80;;
20344;SDS011;10330;48.816;9.278;2023-11-19T13:44:41;1.98;;;0.98;;
20344;SDS011;10330;48.816;9.278;2023-11-19T13:47:08;3.53;;;0.77;;
20344;SDS011;10330;48.816;9.278;2023-11-19T13:49:43;0.73;;;0.60;;
20344;SDS011;10330;48.816;9.278;2023-11-19T13:52:19;3.65;;;0.60;;
20344;SDS011;10330;48.816;9.278;2023-11-19T13:54:45;0.65;;;0.63;;
20344;SDS011;10330;48.816;9.278;2023-11-19T13:57:18;3.00;;;1.00;;
20344;SDS011;10330;48.816;9.278;2023-11-19T13:59:44;3.22;;;0.90;;
20344;SDS011;10330;48.816;9.278;2023-11-19T14:02:14;0.50;;;0.50;;
20344;SDS011;10330;48.816;9.278;2023-11-19T14:04:40;0.50;;;0.50;;
20344;SDS011;10330;48.816;9.278;2023-11-19T14:07:07;0.80;;;0.80;;
20344;SDS011;10330;48.816;9.278;2023-11-19T14:13:42;0.73;;;0.60;;
20344;SDS011;10330;48.816;9.278;2023-11-19T14:16:18;3.92;;;0.80;;
20344;SDS011;10330;48.816;9.278;2023-11-19T14:18:54;0.80;;;0.80;;
20344;SDS011;10330;48.816;9.278;2023-11-19T14:21:23;0.88;;;0.73;;
20344;SDS011;10330;48.816;9.278;2023-11-19T14:23:56;2.60;;;1.40;;
20344;SDS011;10330;48.816;9.278;2023-11-19T14:27:06;2.63;;;0.80;;
20344;SDS011;10330;48.816;9.278;2023-11-19T14:29:32;1.00;;;1.00;;
20344;SDS011;10330;48.816;9.278;2023-11-19T14:32:00;3.65;;;0.80;;
20344;SDS011;10330;48.816;9.278;2023-11-19T14:34:27;1.77;;;1.27;;
20344;SDS011;10330;48.816;9.278;2023-11-19T14:36:53;2.42;;;2.10;;
20344;SDS011;10330;48.816;9.278;2023-11-19T14:39:20;0.90;;;0.90;;
20344;SDS011;10330;48.816;9.278;2023-11-19T14:41:46;0.90;;;0.90;;
20344;SDS011;10330;48.816;9.278;2023-11-19T14:44:13;3.17;;;1.10;;
20344;SDS011;10330;48.816;9.278;2023-11-19T14:46:40;1.77;;;1.67;;
20344;SDS011;10330;48.816;9.278;2023-11-19T14:49:12;2.40;;;0.90;;
20344;SDS011;10330;48.816;9.278;2023-11-19T14:51:41;0.70;;;0.70;;
20344;SDS011;10330;48.816;9.278;2023-11-19T14:54:08;2.45;;;1.23;;
20344;SDS011;10330;48.816;9.278;2023-11-19T14:56:46;0.82;;;0.82;;
20344;SDS011;10330;48.816;9.278;2023-11-19T14:59:19;1.67;;;1.40;;
20344;SDS011;10330;48.816;9.278;2023-11-19T15:01:48;2.92;;;0.80;;
20344;SDS011;10330;48.816;9.278;2023-11-19T15:04:14;1.08;;;0.82;;
20344;SDS011;10330;48.816;9.278;2023-11-19T15:06:41;1.30;;;1.20;;
20344;SDS011;10330;48.816;9.278;2023-11-19T15:09:08;1.65;;;1.55;;
20344;SDS011;10330;48.816;9.278;2023-11-19T15:11:35;3.35;;;2.65;;
20344;SDS011;10330;48.816;9.278;2023-11-19T15:14:02;1.63;;;1.20;;
20344;SDS011;10330;48.816;9.278;2023-11-19T15:16:28;2.13;;;1.38;;
20344;SDS011;10330;48.816;9.278;2023-11-19T15:19:00;2.88;;;1.40;;
20344;SDS011;10330;48.816;9.278;2023-11-19T15:21:29;0.98;;;0.90;;
20344;SDS011;10330;48.816;9.278;2023-11-19T15:23:55;2.65;;;1.15;;
20344;SDS011;10330;48.816;9.278;2023-11-19T15:26:22;1.45;;;1.40;;
20344;SDS011;10330;48.816;9.278;2023-11-19T15:28:48;2.10;;;1.30;;
20344;SDS011;10330;48.816;9.278;2023-11-19T15:31:14;4.15;;;1.48;;
20344;SDS011;10330;48.816;9.278;2023-11-19T15:33:42;1.42;;;1.38;;
20344;SDS011;10330;48.816;9.278;2023-11-19T15:36:08;4.18;;;1.02;;
20344;SDS011;10330;48.816;9.278;2023-11-19T15:38:35;2.05;;;0.85;;
20344;SDS011;10330;48.816;9.278;2023-11-19T15:41:01;1.30;;;1.00;;
20344;SDS011;10330;48.816;9.278;2023-11-19T15:43:28;5.15;;;1.40;;
20344;SDS011;10330;48.816;9.278;2023-11-19T15:45:55;0.93;;;0.85;;
20344;SDS011;10330;48.816;9.278;2023-11-19T15:48:21;0.85;;;0.80;;
20344;SDS011;10330;48.816;9.278;2023-11-19T15:50:47;1.38;;;0.80;;
20344;SDS011;10330;48.816;9.278;2023-11-19T15:53:13;1.02;;;0.77;;
20344;SDS011;10330;48.816;9.278;2023-11-19T15:55:45;3.63;;;0.93;;
20344;SDS011;10330;48.816;9.278;2023-11-19T16:01:17;1.65;;;1.55;;
20344;SDS011;10330;48.816;9.278;2023-11-19T16:03:44;1.70;;;0.82;;
20344;SDS011;10330;48.816;9.278;2023-11-19T16:06:29;1.30;;;1.20;;
20344;SDS011;10330;48.816;9.278;2023-11-19T16:08:56;1.40;;;1.30;;
20344;SDS011;10330;48.816;9.278;2023-11-19T16:11:25;2.53;;;1.50;;
20344;SDS011;10330;48.816;9.278;2023-11-19T16:13:52;1.02;;;1.00;;
20344;SDS011;10330;48.816;9.278;2023-11-19T16:16:20;5.60;;;1.20;;
20344;SDS011;10330;48.816;9.278;2023-11-19T16:18:47;1.30;;;1.13;;
20344;SDS011;10330;48.816;9.278;2023-11-19T16:21:13;6.10;;;1.45;;
20344;SDS011;10330;48.816;9.278;2023-11-19T16:23:40;1.20;;;1.10;;
20344;SDS011;10330;48.816;9.278;2023-11-19T16:26:06;4.43;;;1.60;;
20344;SDS011;10330;48.816;9.278;2023-11-19T16:28:33;4.13;;;1.23;;
20344;SDS011;10330;48.816;9.278;2023-11-19T22:22:12;13.25;;;2.45;;
20344;SDS011;10330;48.816;9.278;2023-11-19T22:25:21;25.27;;;7.32;;
20344;SDS011;10330;48.816;9.278;2023-11-19T22:28:05;17.17;;;4.55;;
20344;SDS011;10330;48.816;9.278;2023-11-19T22:30:39;11.60;;;3.17;;
20344;SDS011;10330;48.816;9.278;2023-11-19T22:33:06;14.20;;;2.70;;
20344;SDS011;10330;48.816;9.278;2023-11-19T22:35:33;7.63;;;2.58;;
20344;SDS011;10330;48.816;9.278;2023-11-19T22:37:59;10.85;;;3.72;;
20344;SDS011;10330;48.816;9.278;2023-11-19T22:40:26;14.70;;;3.20;;
20344;SDS011;10330;48.816;9.278;2023-11-19T22:42:52;5.43;;;2.08;;
20344;SDS011;10330;48.816;9.278;2023-11-19T22:45:18;11.70;;;3.40;;
20344;SDS011;10330;48.816;9.278;2023-11-19T22:47:45;10.45;;;2.20;;
20344;SDS011;10330;48.816;9.278;2023-11-19T22:50:13;6.80;;;2.50;;
20344;SDS011;10330;48.816;9.278;2023-11-19T22:52:39;12.25;;;2.53;;
20344;SDS011;10330;48.816;9.278;2023-11-19T22:55:06;12.77;;;3.17;;
20344;SDS011;10330;48.816;9.278;2023-11-19T22:57:32;13.15;;;3.47;;
20344;SDS011;10330;48.816;9.278;2023-11-19T22:59:58;13.60;;;2.53;;
20344;SDS011;10330;48.816;9.278;2023-11-19T23:02:25;21.60;;;3.17;;
20344;SDS011;10330;48.816;9.278;2023-11-19T23:04:51;14.50;;;3.67;;
20344;SDS011;10330;48.816;9.278;2023-11-19T23:07:17;15.77;;;1.90;;
20344;SDS011;10330;48.816;9.278;2023-11-19T23:09:43;10.73;;;2.13;;
20344;SDS011;10330;48.816;9.278;2023-11-19T23:12:20;8.77;;;2.08;;
20344;SDS011;10330;48.816;9.278;2023-11-19T23:14:47;9.38;;;1.83;;
20344;SDS011;10330;48.816;9.278;2023-11-19T23:17:13;14.68;;;2.33;;
20344;SDS011;10330;48.816;9.278;2023-11-19T23:19:50;11.60;;;2.42;;
20344;SDS011;10330;48.816;9.278;2023-11-19T23:22:20;5.50;;;1.38;;
20344;SDS011;10330;48.816;9.278;2023-11-19T23:24:51;11.52;;;2.03;;
20344;SDS011;10330;48.816;9.278;2023-11-19T23:30:02;10.25;;;1.85;;
20344;SDS011;10330;48.816;9.278;2023-11-19T23:32:39;16.95;;;2.20;;
20344;SDS011;10330;48.816;9.278;2023-11-19T23:35:32;14.38;;;2.58;;
20344;SDS011;10330;48.816;9.278;2023-11-19T23:38:03;16.73;;;2.13;;
20344;SDS011;10330;48.816;9.278;2023-11-19T23:40:29;9.90;;;1.85;;
20344;SDS011;10330;48.816;9.278;2023-11-19T23:42:56;5.32;;;1.65;;
20344;SDS011;10330;48.816;9.278;2023-11-19T23:45:22;7.32;;;1.95;;
20344;SDS011;10330;48.816;9.278;2023-11-19T23:47:48;12.43;;;2.30;;
20344;SDS011;10330;48.816;9.278;2023-11-19T23:50:15;11.63;;;2.28;;
20344;SDS011;10330;48.816;9.278;2023-11-19T23:52:42;13.48;;;1.88;;
20344;SDS011;10330;48.816;9.278;2023-11-19T23:55:11;8.38;;;2.20;;
20344;SDS011;10330;48.816;9.278;2023-11-19T23:57:37;12.80;;;1.98;;
